Latest Observation

42 Stations

15 Minute Data | America/Los_Angeles
as of 5/6/26 6:06 PM PDT
Station Date Time Temp (°F) RH (%) Dew Pt (°F) Wind Spd (mph) Wind Dir (°) Wind Gust (mph) Latest Rain (In) Daily Rain (In) Daily Min Temp (°F) Daily Max Temp (°F) Daily Max Wind (mph)
Elk Mt. Farm 5/6/26 1800 74.7   5.9 - - - - - - - 54.0   6.7 78.5   4.8 -
Upper Lake 5/6/26 1800 75.7   7.4 56   4 59.1   4.9 5.3 NW | 305 11.2   2.4 0.00 0.00 53.4   4.5 78.9   6.0 12.5   1.1
Scotts Valley 5/6/26 1800 77.1   11.2 54   11 59.4   5.4 3.3 W | 269 9.9   2.1 0.00 0.00 53.7   9.3 81.2   8.9 10.8   4.1
Scotts Valley-South (Bella Vista) 5/6/26 1800 76.1   10.6 48   11 55.1   4.0 7.2 WNW | 287 14.0   1.9 0.00 0.00 53.3   7.8 79.5   8.7 14.0   0.8
Kelseyville 5/6/26 1800 78.8   11.9 49   14 57.9   4.3 5.4 WNW | 293 11.0   3.5 0.00 0.00 55.1   7.2 79.7   8.2 12.3   2.4
Kelseyville Remote 5/6/26 1800 78.9   12.0 43   13 54.6   4.0 - - - 0.00 0.00 55.7   7.0 79.8   7.2 -
Kelseyville (Clark Drive) 5/6/26 1800 79.0   12.1 - - - - - 0.00 0.00 55.6   6.6 79.9   6.9 -
Kelsey Bench (Oaklea) 5/6/26 1800 77.0   12.5 48   15 55.6   4.2 7.9 WSW | 248 13.3   13.3 0.00 0.00 53.6   6.3 78.6   8.6 13.3   1.4
Smith Lane (Kelseyville-South) 5/6/26 1800 77.3   11.2 51   14 57.6   3.8 8.2 WSW | 240 14.4   0.0 0.00 0.00 54.8   7.4 79.9   9.0 14.4   2.2
Bell Hill-West 5/6/26 1800 76.5   11.5 58   15 60.9   4.7 7.4 SW | 230 13.2   0.3 0.00 0.00 54.4   7.5 78.4   8.1 13.8   1.0
High Valley Ridgeline (Brassfield) 5/6/26 1800 73.5   10.9 52   16 54.8   3.0 10.6 WSW | 242 16.0   1.0 0.00 0.00 51.5   5.4 74.3   6.8 17.7   1.9
Wight Way (Adobe Creek) 5/6/26 1800 77.2   10.2 49   10 56.8   4.3 6.2 WNW | 292 13.3   3.9 0.00 0.00 54.1   7.8 80.3   8.9 13.3   0.0
Ridgeline Top (Brassfield) 5/6/26 1800 73.8   10.8 - - - - - - - 51.5   5.4 75.2   5.4 -
Ridgeline Low (Brassfield) 5/6/26 1800 74.5   10.1 - - - - - - - 53.3   5.3 75.7   7.1 -
Long Valley (Shannon) 5/6/26 1745 77.4   8.7 51   10 58.1   3.0 3.8 WNW | 298 11.6   3.6 0.00 0.00 56.5   7.6 79.5   8.9 15.4   0.2
High Valley Winery 5/6/26 1800 75.7   10.1 48   12 54.9   3.1 6.4 W | 273 13.6   0.7 0.00 0.00 54.3   6.0 76.6   8.6 16.2   0.2
Round Mtn Rd. 5/6/26 1715 74.8   9.4 - - - - - - - 53.9   7.0 75.6   7.8 -
Circle O 5/6/26 1800 74.9   10.0 - - - - - - - 52.9   6.7 75.8   7.4 -
Robertsbridge Vineyards 5/6/26 1800 78.5   13.4 45   17 55.7   3.7 - - - - - 53.8   6.8 80.4   9.1 -
Urgency Vineyard 5/6/26 1800 76.3   8.9 47   11 54.9   2.6 4.9 WSW | 250 10.6   2.4 0.00 0.00 53.2   5.2 78.1   7.0 15.0   3.4
Red Hills (Beckstoffer) 5/6/26 1800 76.0   9.4 48   12 55.1   2.6 - - - 0.00 0.00 53.3   4.9 78.2   6.7 -
Winters (Shannon) 5/6/26 1800 74.2   9.3 48   13 53.4   2.2 7.0 WNW | 293 12.2   0.4 0.00 0.00 52.4   5.5 75.6   7.7 15.7   0.9
Secret Pond (Shannon) 5/6/26 1800 73.9   11.9 47   19 52.6   2.0 7.0 NW | 317 12.9   4.9 0.00 0.00 52.1   5.6 75.8   8.3 15.4   0.7
Rolling Knolls (Shannon) 5/6/26 1800 76.0   10.9 45   20 52.8   0.1 2.0 NE | 48 4.6   1.0 0.00 0.00 54.2   4.9 78.5   9.7 12.5   0.2
Lower Lake 5/6/26 1800 76.9   12.1 47   20 55.0   1.5 5.9 WNW | 294 12.0   3.5 0.00 0.00 54.1   4.4 78.7   10.8 13.7   5.3
Adamson Ranch 5/6/26 1800 80.2   15.8 52   19 61.0   6.3 0.7 W | 270 2.6   5.9 0.00 0.00 54.8   4.3 80.2   10.2 10.7   1.5
Middletown (Diamond D) 5/6/26 1800 72.0   10.3 61   12 58.1   4.8 5.6 NE | 46 12.1   3.6 0.00 0.00 55.7   4.3 76.3   10.5 15.1   3.2
Middletown-West (Domaine Helena) 5/6/26 1800 70.8   10.6 62   17 57.0   3.5 12.1 SW | 220 20.2   0.9 0.00 0.00 54.1   4.1 76.2   11.0 20.2   0.9
Middletown-South 5/6/26 1800 71.4   10.7 58   15 55.8   3.8 7.5 WSW | 244 14.9   4.1 0.00 0.00 54.8   4.5 75.9   10.8 16.2   2.7
Jim Davis (Langtry) 5/6/26 1800 76.2   12.4 59   14 61.1   5.8 5.1 WSW | 254 8.7   1.6 0.00 0.00 55.4   4.4 77.2   10.1 10.9   1.8
Napa Valley Basin 5/6/26 1800 76.2   10.8 61   9 61.9   6.3 6.6 SW | 226 9.9   1.5 0.00 0.00 56.2   4.0 78.7   8.0 12.1   5.2
Lower Bohn 5/6/26 1800 76.0   10.9 61   10 61.8   6.2 5.0 SSW | 192 8.9   1.8 0.00 0.00 53.8   3.7 80.4   9.7 11.2   0.2
Upper Bohn-North 5/6/26 1800 76.9   12.2 56   13 59.8   5.5 3.8 S | 190 8.1   3.1 0.00 0.00 55.5   4.3 79.9   10.4 9.1   0.1
Snell Peak Blk#9 5/6/26 1800 75.3   12.4 58   14 59.4   5.8 3.9 S | 186 7.3   0.9 0.00 0.00 55.3   4.7 78.4   10.3 10.9   0.4
Coyote Lake West 5/6/26 1800 75.5   11.4 60   11 60.7   6.0 6.5 SW | 219 10.9   0.7 0.00 0.00 56.1   4.5 78.3   10.0 11.6   1.6
Coyote Lake Northeast 5/6/26 1800 76.0   10.7 61   9 61.4   6.2 - - - - - 56.1   4.4 78.4   8.1 -
Coyote Lake East 5/6/26 1800 77.5   11.3 59   9 61.9   6.8 - - - - - 56.8   4.3 78.7   8.5 -
Morgan Valley 5/6/26 1800 71.5   12.5 67   18 59.9   5.3 5.5 SSW | 194 9.7   2.4 0.00 0.00 51.0   3.8 73.4   12.0 14.4   8.4
Mine Pit North 5/6/26 1800 73.1   12.5 62   15 59.2   6.0 6.8 SSW | 197 11.9   3.0 - - 52.1   3.9 74.5   7.7 15.3   1.9
Mine Pit South 5/6/26 1800 75.5   15.9 52   25 56.8   4.3 3.6 SW | 224 8.9   3.4 0.00 0.00 51.3   3.8 76.3   11.4 12.3   1.1
Cow Mountain 5/6/26 1800 61.1   7.6 - - 15.9 W | 274 23.0   6.6 0.00 0.01 47.4   6.3 66.0   8.0 25.2   4.6
Ukiah-SE (Ruddick) 5/6/26 1800 75.0   9.5 48   10 54.0   3.9 8.5 NNW | 340 13.2   0.6 0.00 0.00 54.5   2.8 81.0   8.7 17.4   0.6
Max     80.2 67 61.9 15.9 - 23.0 0.00 0.01 56.8 81.2 25.2
Avg     75.4 53 57.5 6.3 - 11.7 0.00 - - - -
Min     61.1 43 52.6 0.7 - 2.6 0.00 0.00 47.4 66.0 9.1